createdAt,value
2019-02-14T00:05:26.633Z,3.20
2019-02-14T00:11:31.199Z,3.20
2019-02-14T00:17:36.344Z,3.20
2019-02-14T00:23:41.048Z,3.10
2019-02-14T00:29:45.661Z,3.00
2019-02-14T00:35:50.224Z,2.90
2019-02-14T00:41:55.867Z,2.90
2019-02-14T00:48:00.441Z,2.90
2019-02-14T00:54:05.630Z,2.70
2019-02-14T01:00:12.081Z,2.70
2019-02-14T01:06:16.637Z,2.60
2019-02-14T01:12:23.687Z,2.70
2019-02-14T01:18:28.327Z,2.60
2019-02-14T01:24:32.963Z,2.60
2019-02-14T01:30:37.505Z,2.60
2019-02-14T01:36:42.083Z,2.60
2019-02-14T01:42:46.621Z,2.50
2019-02-14T01:48:51.182Z,2.50
2019-02-14T01:54:55.742Z,2.50
2019-02-14T02:01:00.297Z,2.50
2019-02-14T02:07:04.913Z,2.50
2019-02-14T02:13:09.602Z,2.50
2019-02-14T02:19:14.162Z,2.40
2019-02-14T02:25:18.717Z,2.30
2019-02-14T02:31:23.289Z,2.20
2019-02-14T02:37:27.847Z,2.10
2019-02-14T02:43:32.411Z,2.10
2019-02-14T02:49:36.952Z,2.10
2019-02-14T02:55:42.323Z,2.20
2019-02-14T03:01:46.873Z,2.30
2019-02-14T03:07:51.425Z,2.40
2019-02-14T03:13:55.974Z,2.50
2019-02-14T03:20:00.540Z,2.50
2019-02-14T03:26:07.560Z,2.50
2019-02-14T03:32:12.123Z,2.60
2019-02-14T03:38:16.778Z,2.50
2019-02-14T03:44:21.316Z,2.50
2019-02-14T03:50:25.954Z,2.40
2019-02-14T03:56:30.578Z,2.40
2019-02-14T04:02:35.134Z,2.40
2019-02-14T04:08:39.689Z,2.30
2019-02-14T04:14:44.247Z,2.30
2019-02-14T04:20:48.796Z,2.30
2019-02-14T04:26:56.327Z,2.10
2019-02-14T04:33:01.190Z,2.10
2019-02-14T04:39:07.074Z,2.10
2019-02-14T04:45:13.555Z,2.10
2019-02-14T04:51:18.076Z,2.10
2019-02-14T04:57:24.109Z,2.10
2019-02-14T05:03:28.990Z,2.10
2019-02-14T05:09:33.578Z,2.00
2019-02-14T05:15:38.129Z,1.90
2019-02-14T05:21:42.760Z,1.70
2019-02-14T05:27:47.315Z,1.70
2019-02-14T05:33:51.898Z,1.70
2019-02-14T05:39:56.452Z,1.80
2019-02-14T05:46:00.998Z,1.80
2019-02-14T05:52:05.629Z,1.90
2019-02-14T05:58:10.181Z,1.90
2019-02-14T06:04:14.745Z,1.90
2019-02-14T06:10:19.292Z,1.90
2019-02-14T06:16:24.471Z,1.90
2019-02-14T06:22:29.028Z,2.10
2019-02-14T06:28:33.652Z,2.10
2019-02-14T06:34:38.207Z,2.00
2019-02-14T06:40:42.773Z,1.90
2019-02-14T06:46:47.402Z,1.90
2019-02-14T06:52:51.965Z,1.90
2019-02-14T06:58:56.541Z,1.90
2019-02-14T07:05:03.133Z,1.80
2019-02-14T07:11:07.675Z,1.80
2019-02-14T07:17:12.241Z,1.80
2019-02-14T07:23:16.830Z,1.80
2019-02-14T07:29:21.451Z,2.00
2019-02-14T07:35:26.067Z,2.20
2019-02-14T07:41:30.618Z,2.30
2019-02-14T07:47:37.267Z,2.20
2019-02-14T07:53:45.541Z,2.40
2019-02-14T07:59:50.133Z,2.70
2019-02-14T08:05:55.298Z,3.00
2019-02-14T08:11:59.860Z,3.20
2019-02-14T08:18:04.679Z,3.50
2019-02-14T08:24:09.241Z,3.70
2019-02-14T08:30:19.387Z,3.90
2019-02-14T08:36:26.502Z,4.10
2019-02-14T08:42:31.053Z,4.30
2019-02-14T08:48:35.601Z,4.50
2019-02-14T08:54:40.198Z,4.70
2019-02-14T09:00:44.752Z,4.90
2019-02-14T09:06:49.301Z,5.10
2019-02-14T09:12:53.865Z,5.40
2019-02-14T09:18:58.434Z,5.40
2019-02-14T09:25:02.972Z,5.60
2019-02-14T09:31:07.530Z,5.80
2019-02-14T09:37:12.098Z,5.90
2019-02-14T09:43:16.697Z,5.90
2019-02-14T09:49:21.245Z,5.90
2019-02-14T09:55:26.489Z,6.20
2019-02-14T10:01:31.032Z,6.30
2019-02-14T10:07:35.610Z,6.50
2019-02-14T10:13:40.202Z,6.60
2019-02-14T10:19:44.750Z,6.70
2019-02-14T10:25:49.311Z,6.80
2019-02-14T10:31:53.896Z,6.80
2019-02-14T10:37:58.421Z,7.10
2019-02-14T10:44:02.993Z,7.60
2019-02-14T10:50:10.425Z,7.80
2019-02-14T10:56:15.054Z,8.10
2019-02-14T11:02:19.679Z,8.10
2019-02-14T11:08:31.386Z,8.10
2019-02-14T11:14:31.352Z,8.00
2019-02-14T11:20:35.917Z,7.90
2019-02-14T11:26:40.537Z,7.80
2019-02-14T11:32:45.098Z,7.90
2019-02-14T11:38:49.657Z,8.00
2019-02-14T11:44:54.205Z,8.10
2019-02-14T11:50:58.747Z,8.40
2019-02-14T11:57:04.052Z,8.80
2019-02-14T12:03:08.922Z,9.20
2019-02-14T12:09:13.809Z,9.60
2019-02-14T12:15:18.660Z,9.60
2019-02-14T12:21:23.218Z,9.50
2019-02-14T12:27:27.777Z,9.30
2019-02-14T12:33:32.375Z,9.30
2019-02-14T12:39:37.008Z,9.30
2019-02-14T12:45:41.567Z,9.40
2019-02-14T12:51:47.928Z,9.30
2019-02-14T12:57:52.813Z,9.40
2019-02-14T13:03:57.372Z,9.60
2019-02-14T13:10:01.940Z,9.70
2019-02-14T13:16:06.622Z,9.90
2019-02-14T13:22:11.200Z,10.00
2019-02-14T13:28:15.825Z,10.10
2019-02-14T13:34:20.402Z,10.20
2019-02-14T13:40:25.046Z,10.40
2019-02-14T13:46:29.607Z,10.40
2019-02-14T13:52:36.166Z,10.70
2019-02-14T13:58:40.510Z,11.00
2019-02-14T14:04:45.068Z,11.30
2019-02-14T14:10:49.666Z,11.20
2019-02-14T14:16:56.213Z,11.30
2019-02-14T14:23:01.076Z,11.20
2019-02-14T14:29:05.778Z,11.10
2019-02-14T14:35:14.249Z,10.90
2019-02-14T14:41:19.150Z,10.90
2019-02-14T14:47:23.772Z,10.90
2019-02-14T14:53:28.322Z,10.40
2019-02-14T14:59:32.884Z,10.20
2019-02-14T15:05:37.521Z,10.30
2019-02-14T15:11:42.081Z,10.10
2019-02-14T15:17:47.508Z,10.00
2019-02-14T15:23:52.078Z,9.90
2019-02-14T15:29:56.624Z,9.90
2019-02-14T15:36:01.188Z,10.10
2019-02-14T15:42:05.775Z,10.30
2019-02-14T15:48:10.324Z,10.20
2019-02-14T15:54:14.903Z,9.90
2019-02-14T16:00:19.465Z,9.70
2019-02-14T16:06:28.336Z,9.40
2019-02-14T16:12:33.187Z,9.40
2019-02-14T16:18:37.728Z,9.10
2019-02-14T16:24:42.997Z,8.70
2019-02-14T16:30:47.610Z,8.30
2019-02-14T16:36:52.211Z,7.80
2019-02-14T16:42:56.872Z,7.40
2019-02-14T16:49:01.471Z,7.40
2019-02-14T16:55:07.743Z,7.50
2019-02-14T17:01:12.303Z,7.40
2019-02-14T17:07:16.924Z,7.20
2019-02-14T17:13:21.884Z,7.00
2019-02-14T17:19:26.404Z,6.80
2019-02-14T17:25:30.954Z,6.60
2019-02-14T17:31:35.680Z,6.40
2019-02-14T17:37:40.239Z,6.50
2019-02-14T17:43:44.786Z,6.60
2019-02-14T17:49:50.317Z,6.30
2019-02-14T17:55:54.873Z,6.20
2019-02-14T18:01:59.423Z,6.20
2019-02-14T18:08:04.114Z,6.00
2019-02-14T18:14:08.663Z,5.90
2019-02-14T18:20:13.221Z,5.80
2019-02-14T18:26:17.834Z,5.80
2019-02-14T18:32:22.518Z,5.90
2019-02-14T18:38:27.081Z,5.80
2019-02-14T18:44:31.643Z,5.70
2019-02-14T18:50:36.185Z,5.60
2019-02-14T18:56:40.732Z,5.50
2019-02-14T19:02:45.455Z,5.40
2019-02-14T19:08:50.339Z,5.30
2019-02-14T19:14:55.664Z,5.30
2019-02-14T19:21:00.282Z,5.20
2019-02-14T19:27:04.907Z,5.10
2019-02-14T19:33:09.593Z,5.10
2019-02-14T19:39:14.122Z,5.00
2019-02-14T19:45:18.737Z,4.90
2019-02-14T19:51:23.377Z,4.90
2019-02-14T19:57:27.914Z,4.90
2019-02-14T20:03:32.534Z,4.80
2019-02-14T20:09:37.110Z,4.80
2019-02-14T20:15:41.796Z,4.80
2019-02-14T20:21:46.408Z,4.70
2019-02-14T20:27:50.957Z,4.60
2019-02-14T20:33:58.122Z,4.60
2019-02-14T20:40:03.079Z,4.40
2019-02-14T20:46:07.706Z,4.20
2019-02-14T20:52:13.200Z,3.90
2019-02-14T20:58:18.119Z,3.80
2019-02-14T21:04:22.675Z,3.80
2019-02-14T21:10:27.854Z,3.80
2019-02-14T21:16:32.475Z,3.80
2019-02-14T21:22:37.032Z,3.60
2019-02-14T21:28:41.602Z,3.50
2019-02-14T21:34:47.364Z,3.40
2019-02-14T21:40:52.258Z,3.40
2019-02-14T21:46:56.819Z,3.20
2019-02-14T21:53:01.988Z,3.10
2019-02-14T21:59:06.536Z,3.20
2019-02-14T22:05:11.891Z,3.10
2019-02-14T22:11:16.541Z,3.00
2019-02-14T22:17:22.675Z,2.90
2019-02-14T22:23:27.411Z,2.90
2019-02-14T22:29:31.988Z,3.00
2019-02-14T22:35:36.614Z,3.00
2019-02-14T22:41:43.203Z,3.00
2019-02-14T22:47:47.456Z,2.80
2019-02-14T22:53:52.018Z,2.70
2019-02-14T22:59:56.583Z,2.60
2019-02-14T23:06:01.251Z,2.40
2019-02-14T23:12:06.003Z,2.20
2019-02-14T23:18:13.683Z,2.20
2019-02-14T23:24:18.579Z,2.10
2019-02-14T23:30:23.208Z,2.20
2019-02-14T23:36:27.793Z,1.90
2019-02-14T23:42:33.178Z,1.90
2019-02-14T23:48:37.807Z,2.00
2019-02-14T23:54:42.353Z,2.10
